sensor_id;sensor_type;location;lat;lon;timestamp;pressure;altitude;pressure_sealevel;temperature;humidity
33265;BME280;31404;53.974;-1.086;2023-05-19T00:00:38;102692.05;;;12.99;69.73
33265;BME280;31404;53.974;-1.086;2023-05-19T00:05:37;102694.07;;;13.63;68.06
33265;BME280;31404;53.974;-1.086;2023-05-19T00:10:39;102690.83;;;14.91;65.07
33265;BME280;31404;53.974;-1.086;2023-05-19T00:15:36;102697.12;;;14.27;67.77
33265;BME280;31404;53.974;-1.086;2023-05-19T00:20:40;102690.94;;;14.17;68.16
33265;BME280;31404;53.974;-1.086;2023-05-19T00:25:37;102684.62;;;14.44;67.54
33265;BME280;31404;53.974;-1.086;2023-05-19T00:30:39;102685.15;;;14.44;67.81
33265;BME280;31404;53.974;-1.086;2023-05-19T00:35:40;102685.14;;;14.62;66.62
33265;BME280;31404;53.974;-1.086;2023-05-19T00:40:40;102681.62;;;13.53;71.19
33265;BME280;31404;53.974;-1.086;2023-05-19T00:45:38;102692.38;;;11.58;76.76
33265;BME280;31404;53.974;-1.086;2023-05-19T00:50:41;102688.84;;;11.40;78.90
33265;BME280;31404;53.974;-1.086;2023-05-19T00:55:38;102693.77;;;12.58;72.24
33265;BME280;31404;53.974;-1.086;2023-05-19T01:00:37;102691.37;;;13.75;69.00
33265;BME280;31404;53.974;-1.086;2023-05-19T01:05:35;102687.64;;;13.03;70.89
33265;BME280;31404;53.974;-1.086;2023-05-19T01:10:40;102685.29;;;13.22;70.31
33265;BME280;31404;53.974;-1.086;2023-05-19T01:30:42;102680.25;;;14.30;66.81
33265;BME280;31404;53.974;-1.086;2023-05-19T01:35:40;102676.22;;;14.43;66.45
33265;BME280;31404;53.974;-1.086;2023-05-19T01:40:38;102671.70;;;15.08;64.71
33265;BME280;31404;53.974;-1.086;2023-05-19T01:45:39;102672.58;;;12.88;70.64
33265;BME280;31404;53.974;-1.086;2023-05-19T01:50:39;102671.05;;;13.05;70.19
33265;BME280;31404;53.974;-1.086;2023-05-19T01:55:43;102661.84;;;14.39;66.40
33265;BME280;31404;53.974;-1.086;2023-05-19T02:10:40;102655.07;;;14.38;65.67
33265;BME280;31404;53.974;-1.086;2023-05-19T02:15:40;102648.80;;;14.64;65.42
33265;BME280;31404;53.974;-1.086;2023-05-19T02:20:40;102659.37;;;14.92;64.99
33265;BME280;31404;53.974;-1.086;2023-05-19T02:25:38;102659.48;;;15.07;63.76
33265;BME280;31404;53.974;-1.086;2023-05-19T02:30:37;102668.72;;;13.30;68.08
33265;BME280;31404;53.974;-1.086;2023-05-19T02:35:34;102670.88;;;13.98;67.96
33265;BME280;31404;53.974;-1.086;2023-05-19T02:40:37;102670.56;;;12.53;71.10
33265;BME280;31404;53.974;-1.086;2023-05-19T02:45:38;102679.38;;;12.36;73.47
33265;BME280;31404;53.974;-1.086;2023-05-19T02:50:40;102679.75;;;12.23;74.72
33265;BME280;31404;53.974;-1.086;2023-05-19T02:55:38;102675.63;;;12.41;74.05
33265;BME280;31404;53.974;-1.086;2023-05-19T03:00:38;102671.74;;;12.32;75.80
33265;BME280;31404;53.974;-1.086;2023-05-19T03:05:38;102668.19;;;12.40;75.01
33265;BME280;31404;53.974;-1.086;2023-05-19T03:10:38;102659.30;;;12.76;71.80
33265;BME280;31404;53.974;-1.086;2023-05-19T03:15:40;102656.57;;;13.46;71.75
33265;BME280;31404;53.974;-1.086;2023-05-19T03:20:41;102643.19;;;13.92;70.05
33265;BME280;31404;53.974;-1.086;2023-05-19T03:25:35;102639.43;;;13.66;70.95
33265;BME280;31404;53.974;-1.086;2023-05-19T03:30:40;102629.06;;;14.61;68.36
33265;BME280;31404;53.974;-1.086;2023-05-19T03:35:38;102624.39;;;13.73;68.85
33265;BME280;31404;53.974;-1.086;2023-05-19T03:40:34;102614.55;;;14.27;68.57
33265;BME280;31404;53.974;-1.086;2023-05-19T03:45:48;102617.49;;;13.66;70.55
33265;BME280;31404;53.974;-1.086;2023-05-19T03:50:37;102613.19;;;14.65;68.04
33265;BME280;31404;53.974;-1.086;2023-05-19T03:55:38;102613.30;;;14.69;66.96
33265;BME280;31404;53.974;-1.086;2023-05-19T04:00:38;102625.02;;;13.87;68.63
33265;BME280;31404;53.974;-1.086;2023-05-19T04:05:36;102631.78;;;12.12;77.17
33265;BME280;31404;53.974;-1.086;2023-05-19T04:10:39;102635.29;;;13.50;71.90
33265;BME280;31404;53.974;-1.086;2023-05-19T04:15:40;102640.87;;;13.46;71.85
33265;BME280;31404;53.974;-1.086;2023-05-19T04:20:36;102630.15;;;12.97;73.20
33265;BME280;31404;53.974;-1.086;2023-05-19T04:25:36;102632.65;;;13.25;72.72
33265;BME280;31404;53.974;-1.086;2023-05-19T04:30:36;102633.41;;;14.32;69.47
33265;BME280;31404;53.974;-1.086;2023-05-19T04:35:35;102645.62;;;11.98;76.03
33265;BME280;31404;53.974;-1.086;2023-05-19T04:40:40;102650.40;;;12.12;76.97
33265;BME280;31404;53.974;-1.086;2023-05-19T04:45:38;102653.42;;;13.31;74.37
33265;BME280;31404;53.974;-1.086;2023-05-19T04:50:39;102681.57;;;9.12;90.33
33265;BME280;31404;53.974;-1.086;2023-05-19T04:55:39;102682.17;;;9.10;94.00
33265;BME280;31404;53.974;-1.086;2023-05-19T05:00:38;102687.69;;;9.67;93.36
33265;BME280;31404;53.974;-1.086;2023-05-19T05:05:37;102677.71;;;9.95;91.38
33265;BME280;31404;53.974;-1.086;2023-05-19T05:10:38;102674.80;;;12.02;81.99
33265;BME280;31404;53.974;-1.086;2023-05-19T05:15:39;102664.24;;;13.81;74.38
33265;BME280;31404;53.974;-1.086;2023-05-19T05:20:35;102673.82;;;12.22;78.14
33265;BME280;31404;53.974;-1.086;2023-05-19T05:25:42;102675.70;;;12.85;76.66
33265;BME280;31404;53.974;-1.086;2023-05-19T05:30:38;102687.24;;;12.47;76.97
33265;BME280;31404;53.974;-1.086;2023-05-19T05:35:39;102680.82;;;14.44;71.05
33265;BME280;31404;53.974;-1.086;2023-05-19T05:40:35;102676.93;;;15.13;68.90
33265;BME280;31404;53.974;-1.086;2023-05-19T05:45:37;102665.82;;;14.82;69.21
33265;BME280;31404;53.974;-1.086;2023-05-19T05:50:40;102667.85;;;14.37;70.01
33265;BME280;31404;53.974;-1.086;2023-05-19T05:55:36;102667.02;;;15.83;66.12
33265;BME280;31404;53.974;-1.086;2023-05-19T06:00:38;102669.54;;;14.66;68.83
33265;BME280;31404;53.974;-1.086;2023-05-19T06:05:36;102691.44;;;10.12;85.72
33265;BME280;31404;53.974;-1.086;2023-05-19T06:10:38;102677.85;;;12.98;76.73
33265;BME280;31404;53.974;-1.086;2023-05-19T06:15:37;102676.58;;;12.60;78.95
33265;BME280;31404;53.974;-1.086;2023-05-19T06:20:37;102680.30;;;12.16;81.17
33265;BME280;31404;53.974;-1.086;2023-05-19T06:25:37;102680.00;;;11.80;82.12
33265;BME280;31404;53.974;-1.086;2023-05-19T06:30:40;102679.32;;;13.42;75.79
33265;BME280;31404;53.974;-1.086;2023-05-19T06:35:38;102696.25;;;11.75;84.02
33265;BME280;31404;53.974;-1.086;2023-05-19T06:40:40;102680.93;;;12.94;76.14
33265;BME280;31404;53.974;-1.086;2023-05-19T06:45:40;102677.35;;;13.16;75.63
33265;BME280;31404;53.974;-1.086;2023-05-19T06:50:35;102689.94;;;11.85;80.58
33265;BME280;31404;53.974;-1.086;2023-05-19T06:55:36;102687.52;;;10.76;87.78
33265;BME280;31404;53.974;-1.086;2023-05-19T07:00:37;102680.19;;;12.95;77.52
33265;BME280;31404;53.974;-1.086;2023-05-19T07:05:38;102693.02;;;10.62;85.94
33265;BME280;31404;53.974;-1.086;2023-05-19T07:10:39;102698.81;;;10.16;87.94
33265;BME280;31404;53.974;-1.086;2023-05-19T07:15:38;102702.29;;;11.75;82.00
33265;BME280;31404;53.974;-1.086;2023-05-19T07:20:40;102704.21;;;11.79;85.25
33265;BME280;31404;53.974;-1.086;2023-05-19T07:25:38;102708.92;;;11.91;83.92
33265;BME280;31404;53.974;-1.086;2023-05-19T07:30:40;102709.22;;;13.02;80.10
33265;BME280;31404;53.974;-1.086;2023-05-19T07:35:40;102711.25;;;12.60;79.34
33265;BME280;31404;53.974;-1.086;2023-05-19T07:40:36;102717.64;;;11.99;82.65
33265;BME280;31404;53.974;-1.086;2023-05-19T07:45:39;102711.67;;;12.36;84.13
33265;BME280;31404;53.974;-1.086;2023-05-19T07:50:38;102701.66;;;13.18;78.61
33265;BME280;31404;53.974;-1.086;2023-05-19T07:55:34;102700.23;;;14.68;73.07
33265;BME280;31404;53.974;-1.086;2023-05-19T08:00:39;102706.74;;;13.53;77.60
33265;BME280;31404;53.974;-1.086;2023-05-19T08:05:38;102704.93;;;14.67;73.61
33265;BME280;31404;53.974;-1.086;2023-05-19T08:10:35;102711.15;;;13.39;76.96
33265;BME280;31404;53.974;-1.086;2023-05-19T08:15:36;102718.36;;;13.72;78.29
33265;BME280;31404;53.974;-1.086;2023-05-19T08:20:36;102718.96;;;14.23;76.62
33265;BME280;31404;53.974;-1.086;2023-05-19T08:25:37;102722.33;;;13.39;77.30
33265;BME280;31404;53.974;-1.086;2023-05-19T08:30:38;102717.79;;;13.51;76.15
33265;BME280;31404;53.974;-1.086;2023-05-19T08:35:37;102718.55;;;14.46;73.78
33265;BME280;31404;53.974;-1.086;2023-05-19T08:40:36;102721.83;;;14.66;73.90
33265;BME280;31404;53.974;-1.086;2023-05-19T08:45:39;102719.24;;;15.08;71.57
33265;BME280;31404;53.974;-1.086;2023-05-19T08:50:40;102734.06;;;11.73;81.06
33265;BME280;31404;53.974;-1.086;2023-05-19T08:55:38;102724.28;;;13.65;77.73
33265;BME280;31404;53.974;-1.086;2023-05-19T09:00:38;102722.74;;;13.67;76.01
33265;BME280;31404;53.974;-1.086;2023-05-19T09:05:45;102720.02;;;13.69;76.18
33265;BME280;31404;53.974;-1.086;2023-05-19T09:10:38;102716.47;;;14.41;73.22
33265;BME280;31404;53.974;-1.086;2023-05-19T09:15:38;102719.79;;;14.68;73.70
33265;BME280;31404;53.974;-1.086;2023-05-19T09:20:39;102724.38;;;15.05;69.64
33265;BME280;31404;53.974;-1.086;2023-05-19T09:30:35;102728.40;;;14.04;74.34
33265;BME280;31404;53.974;-1.086;2023-05-19T09:35:38;102722.79;;;15.65;70.07
33265;BME280;31404;53.974;-1.086;2023-05-19T09:40:40;102729.98;;;16.39;67.35
33265;BME280;31404;53.974;-1.086;2023-05-19T09:45:40;102732.24;;;16.72;66.26
33265;BME280;31404;53.974;-1.086;2023-05-19T09:50:34;102735.07;;;15.77;69.33
33265;BME280;31404;53.974;-1.086;2023-05-19T09:55:39;102736.89;;;15.79;68.67
33265;BME280;31404;53.974;-1.086;2023-05-19T10:00:39;102748.18;;;14.25;78.39
33265;BME280;31404;53.974;-1.086;2023-05-19T10:05:40;102749.32;;;14.15;82.66
33265;BME280;31404;53.974;-1.086;2023-05-19T10:10:37;102750.51;;;13.34;87.12
33265;BME280;31404;53.974;-1.086;2023-05-19T10:15:37;102755.96;;;12.48;94.58
33265;BME280;31404;53.974;-1.086;2023-05-19T10:20:39;102751.51;;;13.34;92.60
33265;BME280;31404;53.974;-1.086;2023-05-19T10:25:36;102748.87;;;14.17;87.50
33265;BME280;31404;53.974;-1.086;2023-05-19T10:30:40;102742.92;;;14.54;86.46
33265;BME280;31404;53.974;-1.086;2023-05-19T10:50:43;102753.08;;;12.37;91.40
33265;BME280;31404;53.974;-1.086;2023-05-19T10:55:45;102749.03;;;11.35;100.00
33265;BME280;31404;53.974;-1.086;2023-05-19T11:00:38;102750.36;;;12.46;93.30
33265;BME280;31404;53.974;-1.086;2023-05-19T11:05:35;102752.62;;;11.29;100.00
33265;BME280;31404;53.974;-1.086;2023-05-19T11:10:39;102750.18;;;11.01;100.00
33265;BME280;31404;53.974;-1.086;2023-05-19T11:15:41;102744.07;;;13.23;92.87
33265;BME280;31404;53.974;-1.086;2023-05-19T11:20:39;102748.09;;;11.89;94.53
33265;BME280;31404;53.974;-1.086;2023-05-19T11:30:38;102754.08;;;12.71;93.57
33265;BME280;31404;53.974;-1.086;2023-05-19T11:35:38;102748.29;;;13.33;89.27
33265;BME280;31404;53.974;-1.086;2023-05-19T11:40:40;102745.49;;;13.84;90.05
33265;BME280;31404;53.974;-1.086;2023-05-19T11:50:40;102748.71;;;12.99;92.95
33265;BME280;31404;53.974;-1.086;2023-05-19T12:00:36;102744.17;;;12.87;96.98
33265;BME280;31404;53.974;-1.086;2023-05-19T12:05:39;102741.20;;;14.57;86.33
33265;BME280;31404;53.974;-1.086;2023-05-19T12:10:40;102748.30;;;14.13;87.09
33265;BME280;31404;53.974;-1.086;2023-05-19T12:15:39;102739.36;;;14.50;85.19
33265;BME280;31404;53.974;-1.086;2023-05-19T12:20:40;102738.06;;;15.03;80.32
33265;BME280;31404;53.974;-1.086;2023-05-19T12:25:39;102735.48;;;14.90;79.06
33265;BME280;31404;53.974;-1.086;2023-05-19T12:30:35;102733.45;;;14.53;82.57
33265;BME280;31404;53.974;-1.086;2023-05-19T12:35:40;102733.32;;;16.42;75.14
33265;BME280;31404;53.974;-1.086;2023-05-19T12:40:40;102726.72;;;17.08;72.89
33265;BME280;31404;53.974;-1.086;2023-05-19T12:45:40;102735.87;;;16.66;71.31
33265;BME280;31404;53.974;-1.086;2023-05-19T12:50:40;102735.04;;;15.74;77.22
33265;BME280;31404;53.974;-1.086;2023-05-19T12:55:38;102728.73;;;15.81;74.16
33265;BME280;31404;53.974;-1.086;2023-05-19T13:00:41;102727.74;;;15.98;74.47
33265;BME280;31404;53.974;-1.086;2023-05-19T13:05:39;102727.00;;;15.62;75.25
33265;BME280;31404;53.974;-1.086;2023-05-19T13:10:39;102727.14;;;16.76;70.71
33265;BME280;31404;53.974;-1.086;2023-05-19T13:15:42;102732.02;;;15.76;81.47
33265;BME280;31404;53.974;-1.086;2023-05-19T13:20:40;102734.93;;;15.94;82.81
33265;BME280;31404;53.974;-1.086;2023-05-19T13:25:37;102737.59;;;16.16;81.94
33265;BME280;31404;53.974;-1.086;2023-05-19T13:30:42;102735.16;;;14.84;91.31
33265;BME280;31404;53.974;-1.086;2023-05-19T13:35:39;102730.52;;;17.44;80.94
33265;BME280;31404;53.974;-1.086;2023-05-19T13:40:39;102738.56;;;14.79;85.09
33265;BME280;31404;53.974;-1.086;2023-05-19T13:45:39;102738.25;;;15.68;79.79
33265;BME280;31404;53.974;-1.086;2023-05-19T13:50:37;102730.54;;;14.77;83.27
33265;BME280;31404;53.974;-1.086;2023-05-19T13:55:37;102729.11;;;15.90;77.85
33265;BME280;31404;53.974;-1.086;2023-05-19T14:00:35;102735.68;;;15.51;80.63
33265;BME280;31404;53.974;-1.086;2023-05-19T14:05:39;102739.36;;;15.07;88.42
33265;BME280;31404;53.974;-1.086;2023-05-19T14:10:39;102737.95;;;14.63;91.17
33265;BME280;31404;53.974;-1.086;2023-05-19T14:15:37;102743.84;;;14.81;90.04
33265;BME280;31404;53.974;-1.086;2023-05-19T14:20:39;102747.70;;;13.50;93.86
33265;BME280;31404;53.974;-1.086;2023-05-19T14:25:36;102749.77;;;13.20;93.80
33265;BME280;31404;53.974;-1.086;2023-05-19T14:30:37;102755.21;;;13.99;91.44
33265;BME280;31404;53.974;-1.086;2023-05-19T14:35:39;102759.75;;;14.39;85.03
33265;BME280;31404;53.974;-1.086;2023-05-19T14:40:40;102760.40;;;14.39;85.36
33265;BME280;31404;53.974;-1.086;2023-05-19T14:45:38;102762.49;;;14.09;88.07
33265;BME280;31404;53.974;-1.086;2023-05-19T14:50:40;102764.75;;;14.30;86.78
33265;BME280;31404;53.974;-1.086;2023-05-19T14:55:39;102754.43;;;14.11;87.88
33265;BME280;31404;53.974;-1.086;2023-05-19T15:00:39;102754.21;;;13.50;93.66
33265;BME280;31404;53.974;-1.086;2023-05-19T15:10:35;102765.16;;;14.43;87.90
33265;BME280;31404;53.974;-1.086;2023-05-19T15:15:38;102762.69;;;14.37;88.24
33265;BME280;31404;53.974;-1.086;2023-05-19T15:20:39;102763.45;;;15.40;83.44
33265;BME280;31404;53.974;-1.086;2023-05-19T15:25:41;102766.69;;;15.62;83.27
33265;BME280;31404;53.974;-1.086;2023-05-19T15:30:35;102758.50;;;15.23;84.73
33265;BME280;31404;53.974;-1.086;2023-05-19T15:35:37;102759.00;;;15.14;85.25
33265;BME280;31404;53.974;-1.086;2023-05-19T15:40:41;102760.57;;;15.36;84.89
33265;BME280;31404;53.974;-1.086;2023-05-19T15:45:40;102757.93;;;14.39;88.40
33265;BME280;31404;53.974;-1.086;2023-05-19T15:50:35;102758.90;;;14.72;86.96
33265;BME280;31404;53.974;-1.086;2023-05-19T15:55:38;102770.65;;;14.01;89.34
33265;BME280;31404;53.974;-1.086;2023-05-19T16:00:39;102776.67;;;11.55;100.00
33265;BME280;31404;53.974;-1.086;2023-05-19T16:05:39;102780.27;;;12.75;93.80
33265;BME280;31404;53.974;-1.086;2023-05-19T16:10:38;102769.79;;;14.28;87.20
33265;BME280;31404;53.974;-1.086;2023-05-19T16:15:40;102772.51;;;14.96;85.21
33265;BME280;31404;53.974;-1.086;2023-05-19T16:20:38;102771.52;;;16.02;80.64
33265;BME280;31404;53.974;-1.086;2023-05-19T16:25:39;102772.06;;;15.31;81.69
33265;BME280;31404;53.974;-1.086;2023-05-19T16:30:35;102772.48;;;15.32;82.24
33265;BME280;31404;53.974;-1.086;2023-05-19T16:35:35;102778.68;;;14.18;88.87
33265;BME280;31404;53.974;-1.086;2023-05-19T16:40:40;102774.91;;;14.17;89.99
33265;BME280;31404;53.974;-1.086;2023-05-19T16:45:40;102775.21;;;13.45;93.32
33265;BME280;31404;53.974;-1.086;2023-05-19T16:50:35;102781.40;;;13.05;99.10
33265;BME280;31404;53.974;-1.086;2023-05-19T16:55:36;102779.60;;;13.25;98.47
33265;BME280;31404;53.974;-1.086;2023-05-19T17:05:45;102782.77;;;12.06;100.00
33265;BME280;31404;53.974;-1.086;2023-05-19T17:10:39;102777.77;;;11.92;100.00
33265;BME280;31404;53.974;-1.086;2023-05-19T17:15:43;102788.80;;;12.93;100.00
33265;BME280;31404;53.974;-1.086;2023-05-19T17:20:39;102798.63;;;12.95;100.00
33265;BME280;31404;53.974;-1.086;2023-05-19T17:25:40;102798.49;;;14.12;96.15
33265;BME280;31404;53.974;-1.086;2023-05-19T17:30:40;102801.87;;;14.29;95.04
33265;BME280;31404;53.974;-1.086;2023-05-19T17:35:40;102808.89;;;13.29;98.05
33265;BME280;31404;53.974;-1.086;2023-05-19T17:40:39;102810.58;;;11.90;100.00
33265;BME280;31404;53.974;-1.086;2023-05-19T17:45:40;102807.78;;;11.78;100.00
33265;BME280;31404;53.974;-1.086;2023-05-19T17:50:40;102812.80;;;12.15;100.00
33265;BME280;31404;53.974;-1.086;2023-05-19T17:55:41;102816.52;;;11.19;100.00
33265;BME280;31404;53.974;-1.086;2023-05-19T18:00:35;102818.16;;;11.37;100.00
33265;BME280;31404;53.974;-1.086;2023-05-19T18:05:38;102821.31;;;10.10;100.00
33265;BME280;31404;53.974;-1.086;2023-05-19T18:10:41;102826.29;;;11.53;100.00
33265;BME280;31404;53.974;-1.086;2023-05-19T18:15:39;102838.68;;;12.32;100.00
33265;BME280;31404;53.974;-1.086;2023-05-19T18:20:41;102849.66;;;10.87;100.00
33265;BME280;31404;53.974;-1.086;2023-05-19T18:25:35;102853.75;;;10.76;100.00
33265;BME280;31404;53.974;-1.086;2023-05-19T18:30:40;102857.29;;;10.70;100.00
33265;BME280;31404;53.974;-1.086;2023-05-19T18:35:39;102858.70;;;10.72;100.00
33265;BME280;31404;53.974;-1.086;2023-05-19T18:40:42;102852.72;;;11.25;100.00
33265;BME280;31404;53.974;-1.086;2023-05-19T18:45:40;102857.46;;;11.71;100.00
33265;BME280;31404;53.974;-1.086;2023-05-19T18:50:41;102858.84;;;12.06;100.00
33265;BME280;31404;53.974;-1.086;2023-05-19T18:55:40;102860.38;;;11.90;100.00
33265;BME280;31404;53.974;-1.086;2023-05-19T19:00:40;102875.88;;;11.17;100.00
33265;BME280;31404;53.974;-1.086;2023-05-19T19:05:39;102879.77;;;11.96;100.00
33265;BME280;31404;53.974;-1.086;2023-05-19T19:10:41;102886.12;;;11.44;100.00
33265;BME280;31404;53.974;-1.086;2023-05-19T19:15:35;102890.39;;;10.34;100.00
33265;BME280;31404;53.974;-1.086;2023-05-19T19:20:38;102889.75;;;10.24;100.00
33265;BME280;31404;53.974;-1.086;2023-05-19T19:25:40;102896.17;;;9.63;100.00
33265;BME280;31404;53.974;-1.086;2023-05-19T19:30:40;102896.86;;;9.58;100.00
33265;BME280;31404;53.974;-1.086;2023-05-19T19:35:39;102892.54;;;9.48;100.00
33265;BME280;31404;53.974;-1.086;2023-05-19T19:40:40;102895.86;;;9.38;100.00
33265;BME280;31404;53.974;-1.086;2023-05-19T19:45:35;102900.97;;;9.62;100.00
33265;BME280;31404;53.974;-1.086;2023-05-19T19:50:40;102901.41;;;10.93;100.00
33265;BME280;31404;53.974;-1.086;2023-05-19T19:55:40;102906.59;;;11.23;100.00
33265;BME280;31404;53.974;-1.086;2023-05-19T20:00:41;102909.23;;;12.23;99.00
33265;BME280;31404;53.974;-1.086;2023-05-19T20:05:40;102912.63;;;12.25;97.77
33265;BME280;31404;53.974;-1.086;2023-05-19T20:10:39;102914.93;;;12.50;97.56
33265;BME280;31404;53.974;-1.086;2023-05-19T20:15:40;102916.09;;;12.50;95.58
33265;BME280;31404;53.974;-1.086;2023-05-19T20:20:41;102923.38;;;12.50;96.15
33265;BME280;31404;53.974;-1.086;2023-05-19T20:25:40;102927.50;;;12.06;98.48
33265;BME280;31404;53.974;-1.086;2023-05-19T20:30:39;102932.72;;;14.00;89.41
33265;BME280;31404;53.974;-1.086;2023-05-19T20:35:40;102941.42;;;12.54;93.96
33265;BME280;31404;53.974;-1.086;2023-05-19T20:40:39;102946.93;;;13.01;95.22
33265;BME280;31404;53.974;-1.086;2023-05-19T20:45:42;102950.03;;;13.61;88.45
33265;BME280;31404;53.974;-1.086;2023-05-19T20:50:40;102948.29;;;14.47;84.52
33265;BME280;31404;53.974;-1.086;2023-05-19T20:55:39;102960.02;;;14.39;83.05
33265;BME280;31404;53.974;-1.086;2023-05-19T21:00:39;102969.64;;;12.62;89.92
33265;BME280;31404;53.974;-1.086;2023-05-19T21:05:41;102966.00;;;12.10;93.81
33265;BME280;31404;53.974;-1.086;2023-05-19T21:10:40;102966.99;;;11.74;95.71
33265;BME280;31404;53.974;-1.086;2023-05-19T21:15:34;102974.58;;;10.58;100.00
33265;BME280;31404;53.974;-1.086;2023-05-19T21:20:40;102977.53;;;11.28;98.54
33265;BME280;31404;53.974;-1.086;2023-05-19T21:25:39;102978.31;;;11.41;95.59
33265;BME280;31404;53.974;-1.086;2023-05-19T21:30:40;102977.52;;;11.38;94.74
33265;BME280;31404;53.974;-1.086;2023-05-19T21:35:40;102975.05;;;11.16;96.49
33265;BME280;31404;53.974;-1.086;2023-05-19T21:40:40;102972.01;;;11.96;92.38
33265;BME280;31404;53.974;-1.086;2023-05-19T21:45:39;102980.93;;;11.65;93.56
33265;BME280;31404;53.974;-1.086;2023-05-19T21:50:40;102981.06;;;12.49;89.41
33265;BME280;31404;53.974;-1.086;2023-05-19T21:55:34;102987.17;;;12.28;88.45
33265;BME280;31404;53.974;-1.086;2023-05-19T22:00:40;102987.70;;;11.89;91.63
33265;BME280;31404;53.974;-1.086;2023-05-19T22:05:34;102982.80;;;12.57;89.31
33265;BME280;31404;53.974;-1.086;2023-05-19T22:10:40;102989.65;;;13.43;83.85
33265;BME280;31404;53.974;-1.086;2023-05-19T22:15:37;102992.54;;;13.48;82.10
33265;BME280;31404;53.974;-1.086;2023-05-19T22:20:35;102993.35;;;12.76;83.97
33265;BME280;31404;53.974;-1.086;2023-05-19T22:25:40;102986.17;;;12.51;85.02
33265;BME280;31404;53.974;-1.086;2023-05-19T22:30:41;102989.59;;;13.80;80.47
33265;BME280;31404;53.974;-1.086;2023-05-19T22:35:40;102993.54;;;13.69;81.35
33265;BME280;31404;53.974;-1.086;2023-05-19T22:40:35;102988.00;;;15.07;75.39
33265;BME280;31404;53.974;-1.086;2023-05-19T22:45:40;102989.17;;;13.10;80.63
33265;BME280;31404;53.974;-1.086;2023-05-19T22:50:40;102989.70;;;11.91;86.67
33265;BME280;31404;53.974;-1.086;2023-05-19T22:55:40;102993.96;;;12.09;86.19
33265;BME280;31404;53.974;-1.086;2023-05-19T23:00:39;102995.54;;;10.74;94.19
33265;BME280;31404;53.974;-1.086;2023-05-19T23:05:42;102994.80;;;10.26;97.24
33265;BME280;31404;53.974;-1.086;2023-05-19T23:10:35;102991.99;;;10.28;97.29
33265;BME280;31404;53.974;-1.086;2023-05-19T23:15:39;102994.13;;;9.50;100.00
33265;BME280;31404;53.974;-1.086;2023-05-19T23:20:40;102992.94;;;9.94;99.88
33265;BME280;31404;53.974;-1.086;2023-05-19T23:25:37;102998.68;;;10.05;98.93
33265;BME280;31404;53.974;-1.086;2023-05-19T23:30:40;102995.24;;;10.95;93.43
33265;BME280;31404;53.974;-1.086;2023-05-19T23:35:39;102995.32;;;11.02;91.66
33265;BME280;31404;53.974;-1.086;2023-05-19T23:40:40;102991.29;;;11.79;86.02
33265;BME280;31404;53.974;-1.086;2023-05-19T23:45:40;102990.42;;;12.10;83.74
33265;BME280;31404;53.974;-1.086;2023-05-19T23:50:40;102992.35;;;10.95;88.87
33265;BME280;31404;53.974;-1.086;2023-05-19T23:55:39;102986.35;;;12.48;80.58
